Slayton, MN (56172)

9:11 PM CDT on July 23, 2016 (GMT -0500)
Badger Lake | | Change Station

Elev 1562 ft 43.92 °N, 95.71 °W | Updated 6 seconds ago

Clear
Clear
79.3 °F
Feels Like 84 °F
N
0.4
Wind Variable Wind from South
Gusts 2.5 mph

Today
High -- | Low -- °F
--% Chance of Precip.
Yesterday
High -- | Low -- °F
Precip. -- in
Pressure 29.79 in
Visibility 10.0 miles
Clouds Clear
Heat Index 84 °F
Dew Point 77 °F
Humidity 92%
Rainfall 0.15 in
Snow Depth Not available.
6:02 AM 8:56 PM
Waning Gibbous, 80% visible
METAR KDVP 240154Z AUTO 15005KT 10SM CLR 27/25 A2979 RMK AO2 LTG DSNT N T02660248
Pressure 29.79 in
Visibility 10.0 miles
Clouds Clear
Heat Index 84 °F
Dew Point 77 °F
Humidity 92%
Rainfall 0.15 in
Snow Depth Not available.
6:02 AM 8:56 PM
Waning Gibbous, 80% visible
METAR KDVP 240154Z AUTO 15005KT 10SM CLR 27/25 A2979 RMK AO2 LTG DSNT N T02660248

10-Day Weather Forecast

Almanac

Astronomy

Jul. 23, 2016 Rise Set
Actual Time
Civil Twilight
Nautical Twilight
Astronomical Twilight
Moon
Length of Visible Light
Length of Day
Tomorrow will be .
, % of the Moon is Illuminated

Today's Extremes

State Highs State Lows

Community

WunderPhotos

Upload Photos

1,927,000 photos uploaded!

WunderBlog® & News

Nearby

Air Quality

  Air Quality AQ Index Pollutant
Not available.

Snow Depth

Station Depth Elevation

Earthquake Activity

City Distance Mag. Time & Date
Minimum magnitude displayed is 2.5.

Coastal Water Temperatures

Place Temperature

Stations

Nearby Weather Stations

Station Location Temp. Windchill Dew Point Humidity Wind Precip. Elev Updated Type
                   

Watches & Warnings

There are currently no watches in effect.